Time;durP1;ratioP1;P1;durP2;ratioP2;P2;SDS_P1;SDS_P2;PMS_P1;PMS_P2;Temp;Humidity;BMP_temperature;BMP_pressure;BME280_temperature;BME280_humidity;BME280_pressure;Samples;Min_cycle;Max_cycle;Signal;HPM_P1;HPM_P2
2021/10/07 00:01:56;;;;;;;0.70;0.30;;;22.10;51.70;;;;;;5066464;28;20391;-74
2021/10/07 00:04:22;;;;;;;0.87;0.30;;;22.10;51.90;;;;;;5066072;28;20386;-75
2021/10/07 00:06:48;;;;;;;0.70;0.30;;;22.10;51.70;;;;;;5064785;28;20403;-74
2021/10/07 00:09:13;;;;;;;0.70;0.20;;;22.00;51.90;;;;;;5065773;28;20430;-74
2021/10/07 00:11:39;;;;;;;0.55;0.30;;;22.10;51.80;;;;;;5061265;28;20453;-74
2021/10/07 00:14:06;;;;;;;0.63;0.30;;;22.10;51.70;;;;;;5064626;28;20391;-74
2021/10/07 00:16:33;;;;;;;1.25;0.32;;;22.10;51.70;;;;;;5065960;28;20490;-74
2021/10/07 00:18:58;;;;;;;2.37;0.40;;;22.10;51.60;;;;;;5055679;28;20501;-75
2021/10/07 00:21:24;;;;;;;1.40;0.30;;;22.00;51.90;;;;;;5047960;28;20391;-75
2021/10/07 00:24:02;;;;;;;0.68;0.20;;;22.00;51.70;;;;;;5066145;28;20387;-74
2021/10/07 00:26:28;;;;;;;0.83;0.20;;;22.10;51.90;;;;;;5065985;28;20392;-74
2021/10/07 00:28:57;;;;;;;0.50;0.20;;;22.10;51.70;;;;;;5063967;28;20391;-74
2021/10/07 00:31:26;;;;;;;0.73;0.20;;;22.10;52.30;;;;;;5065315;28;20387;-74
2021/10/07 00:39:05;;;;;;;0.83;0.30;;;22.00;51.80;;;;;;5064578;28;20924;-75
2021/10/07 00:41:39;;;;;;;2.33;0.30;;;22.00;51.90;;;;;;5065378;28;20978;-74
2021/10/07 00:44:10;;;;;;;1.27;0.30;;;22.10;51.70;;;;;;5065005;28;20387;-75
2021/10/07 00:46:50;;;;;;;0.73;0.20;;;22.10;51.60;;;;;;5065534;28;20761;-74
2021/10/07 00:49:17;;;;;;;0.60;0.20;;;22.10;51.50;;;;;;5063893;28;20979;-74
2021/10/07 00:51:42;;;;;;;0.93;0.20;;;22.00;51.80;;;;;;5051217;28;20390;-74
2021/10/07 00:54:09;;;;;;;0.73;0.20;;;21.90;51.70;;;;;;5057675;28;20462;-74
2021/10/07 00:56:35;;;;;;;0.52;0.20;;;22.00;51.90;;;;;;5063934;28;20434;-75
2021/10/07 00:59:01;;;;;;;0.53;0.20;;;22.00;51.60;;;;;;5063375;28;20450;-75
2021/10/07 01:01:27;;;;;;;0.80;0.30;;;22.10;51.70;;;;;;5058563;28;20379;-74
2021/10/07 01:03:53;;;;;;;1.02;0.30;;;22.10;51.50;;;;;;5063668;28;20426;-74
2021/10/07 01:06:19;;;;;;;1.13;0.30;;;22.00;51.80;;;;;;5050577;28;20371;-74
2021/10/07 01:08:45;;;;;;;0.80;0.20;;;22.00;51.80;;;;;;5055261;28;20794;-74
2021/10/07 01:11:13;;;;;;;0.40;0.13;;;22.00;51.80;;;;;;5064364;28;20875;-74
2021/10/07 01:13:40;;;;;;;0.47;0.30;;;22.00;51.70;;;;;;5054183;28;20396;-74
2021/10/07 01:16:07;;;;;;;0.95;0.38;;;22.10;51.60;;;;;;5055660;28;20466;-74
2021/10/07 01:18:33;;;;;;;0.80;0.20;;;22.00;51.40;;;;;;5064488;28;20921;-74
2021/10/07 01:20:58;;;;;;;0.75;0.30;;;22.00;51.60;;;;;;5051544;28;20392;-74
2021/10/07 01:23:24;;;;;;;0.70;0.33;;;21.90;51.60;;;;;;5064288;28;20768;-74
2021/10/07 01:25:50;;;;;;;0.45;0.22;;;21.90;51.40;;;;;;5064891;28;20483;-74
2021/10/07 01:28:16;;;;;;;0.82;0.30;;;22.00;51.80;;;;;;5064690;28;20392;-74
2021/10/07 01:30:42;;;;;;;0.80;0.30;;;22.00;51.50;;;;;;5064864;28;20468;-75
2021/10/07 01:33:08;;;;;;;0.35;0.20;;;22.00;51.40;;;;;;5063986;28;20399;-74
2021/10/07 01:35:34;;;;;;;0.50;0.20;;;22.00;51.40;;;;;;5064497;28;20376;-74
2021/10/07 01:37:59;;;;;;;0.68;0.22;;;21.90;51.60;;;;;;5064439;28;20933;-74
2021/10/07 01:40:25;;;;;;;1.00;0.30;;;21.90;51.60;;;;;;5064182;28;20411;-74
2021/10/07 01:42:51;;;;;;;0.90;0.20;;;22.00;51.60;;;;;;5064522;28;20388;-74
2021/10/07 01:45:17;;;;;;;0.60;0.30;;;22.00;51.50;;;;;;5062589;28;20400;-75
2021/10/07 01:47:43;;;;;;;1.88;0.20;;;22.00;51.50;;;;;;5064570;28;20391;-74
2021/10/07 01:50:11;;;;;;;0.60;0.20;;;22.00;51.40;;;;;;5064039;28;20399;-74
2021/10/07 01:52:38;;;;;;;1.25;0.30;;;21.90;51.60;;;;;;5064041;28;20376;-74
2021/10/07 01:55:05;;;;;;;1.15;0.20;;;21.90;51.70;;;;;;5063960;28;20445;-74
2021/10/07 01:57:31;;;;;;;0.65;0.20;;;22.00;51.50;;;;;;5064083;28;20447;-74
2021/10/07 01:59:56;;;;;;;0.50;0.20;;;22.00;51.40;;;;;;5054875;28;20874;-74
2021/10/07 02:02:22;;;;;;;1.05;0.20;;;22.00;51.40;;;;;;5064193;28;20466;-74
2021/10/07 02:04:47;;;;;;;0.63;0.23;;;21.90;51.20;;;;;;5053902;28;20399;-74
2021/10/07 02:07:13;;;;;;;0.60;0.30;;;21.90;51.60;;;;;;5063479;28;20502;-74
2021/10/07 02:09:39;;;;;;;0.70;0.20;;;21.90;51.60;;;;;;5062344;28;20419;-73
2021/10/07 02:12:05;;;;;;;0.77;0.40;;;21.90;51.70;;;;;;5064113;28;20395;-75
2021/10/07 02:14:31;;;;;;;1.00;0.20;;;21.90;51.40;;;;;;5055332;28;20396;-74
2021/10/07 02:16:56;;;;;;;1.10;0.30;;;22.00;51.40;;;;;;5063529;28;20890;-74
2021/10/07 02:19:22;;;;;;;1.00;0.40;;;21.90;51.10;;;;;;5055809;28;20446;-74
2021/10/07 02:21:48;;;;;;;0.73;0.20;;;21.90;51.50;;;;;;5062679;28;20458;-74
2021/10/07 02:24:13;;;;;;;1.13;0.20;;;21.90;51.60;;;;;;5050963;28;20469;-74
2021/10/07 02:26:39;;;;;;;0.70;0.10;;;21.90;51.70;;;;;;5063461;28;20430;-75
2021/10/07 02:29:07;;;;;;;0.60;0.20;;;21.90;51.40;;;;;;5063152;28;20878;-73
2021/10/07 02:31:32;;;;;;;0.45;0.17;;;21.90;51.40;;;;;;5053776;28;20388;-74
2021/10/07 02:33:58;;;;;;;0.30;0.20;;;21.90;51.20;;;;;;5057056;28;20399;-74
2021/10/07 02:36:24;;;;;;;0.43;0.20;;;21.90;51.30;;;;;;5055120;28;21006;-74
2021/10/07 02:38:50;;;;;;;0.60;0.15;;;21.90;51.50;;;;;;5055981;28;20930;-74
2021/10/07 02:41:16;;;;;;;0.95;0.20;;;21.90;51.60;;;;;;5058875;28;20388;-74
2021/10/07 02:43:41;;;;;;;0.52;0.20;;;21.90;51.50;;;;;;5063005;28;20392;-74
2021/10/07 02:46:07;;;;;;;1.08;0.30;;;22.00;51.30;;;;;;5063102;28;20404;-74
2021/10/07 02:48:33;;;;;;;0.90;0.30;;;21.90;51.20;;;;;;5051487;28;20403;-74
2021/10/07 02:50:58;;;;;;;0.60;0.20;;;21.90;51.10;;;;;;5062877;28;20384;-75
2021/10/07 02:53:27;;;;;;;1.57;0.30;;;21.90;51.50;;;;;;5062845;28;20977;-74
2021/10/07 02:55:53;;;;;;;0.98;0.20;;;21.80;51.50;;;;;;5062736;28;20753;-74
2021/10/07 02:58:18;;;;;;;2.10;0.23;;;21.90;51.40;;;;;;5061643;28;20483;-74
2021/10/07 03:00:44;;;;;;;0.80;0.20;;;21.90;51.20;;;;;;5062626;28;20379;-74
2021/10/07 03:03:13;;;;;;;0.93;0.40;;;21.90;51.10;;;;;;5053114;28;20395;-75
2021/10/07 03:05:38;;;;;;;1.20;0.20;;;21.90;51.10;;;;;;5051090;28;20419;-74
2021/10/07 03:08:04;;;;;;;0.67;0.27;;;21.90;51.40;;;;;;5057343;28;20442;-74
2021/10/07 03:10:30;;;;;;;1.50;0.70;;;21.90;52.00;;;;;;5052906;28;20411;-75
2021/10/07 03:12:56;;;;;;;1.98;0.43;;;22.00;51.80;;;;;;5062180;28;20383;-74
2021/10/07 03:15:21;;;;;;;2.00;0.40;;;22.00;51.90;;;;;;5051975;28;20453;-75
2021/10/07 03:17:47;;;;;;;1.58;0.30;;;22.10;52.20;;;;;;5064960;28;20403;-74
2021/10/07 03:20:13;;;;;;;1.97;0.40;;;22.10;52.00;;;;;;5061070;28;20394;-75
2021/10/07 03:22:40;;;;;;;4.88;0.55;;;22.10;53.30;;;;;;5094622;28;20386;-75
2021/10/07 03:25:07;;;;;;;12.35;0.90;;;22.10;53.40;;;;;;5061262;28;20906;-74
2021/10/07 03:27:34;;;;;;;6.97;0.80;;;22.10;53.50;;;;;;5062358;28;20368;-74
2021/10/07 03:30:00;;;;;;;7.27;0.87;;;22.20;53.80;;;;;;5094597;28;20478;-74
2021/10/07 03:32:25;;;;;;;5.40;0.70;;;22.30;53.80;;;;;;5062549;28;20391;-75
2021/10/07 03:34:51;;;;;;;11.47;0.90;;;22.30;53.20;;;;;;5054235;28;20400;-74
2021/10/07 03:37:17;;;;;;;7.13;0.82;;;22.30;53.90;;;;;;5061475;28;20437;-74
2021/10/07 03:39:42;;;;;;;5.88;0.77;;;22.30;54.70;;;;;;5061786;28;20864;-74
2021/10/07 03:42:08;;;;;;;3.60;0.65;;;22.30;54.40;;;;;;5061697;28;20391;-74
2021/10/07 03:44:34;;;;;;;4.15;0.57;;;22.40;54.70;;;;;;5060334;28;20756;-74
2021/10/07 03:46:59;;;;;;;6.60;0.80;;;22.40;54.20;;;;;;5048845;28;21259;-75
2021/10/07 03:49:25;;;;;;;11.03;1.10;;;22.40;53.70;;;;;;5062296;28;20571;-74
2021/10/07 03:51:51;;;;;;;5.35;0.50;;;22.40;54.30;;;;;;5054399;28;20391;-74
2021/10/07 03:54:16;;;;;;;7.65;0.80;;;22.40;54.30;;;;;;5062348;28;20419;-74
2021/10/07 03:56:42;;;;;;;5.78;0.73;;;22.40;54.60;;;;;;5060545;28;20391;-75
2021/10/07 03:59:08;;;;;;;6.23;0.83;;;22.50;54.80;;;;;;5060171;28;20435;-74
2021/10/07 04:01:33;;;;;;;8.60;0.80;;;22.50;54.60;;;;;;5061741;28;20993;-74
2021/10/07 04:03:59;;;;;;;5.30;0.67;;;22.50;54.00;;;;;;5062110;28;20465;-75
2021/10/07 04:06:24;;;;;;;3.15;0.50;;;22.40;53.80;;;;;;5060441;28;20392;-74
2021/10/07 04:08:50;;;;;;;4.20;0.70;;;22.30;53.50;;;;;;5062078;28;20416;-75
2021/10/07 04:11:16;;;;;;;5.32;0.60;;;22.30;53.60;;;;;;5060213;28;20392;-74
2021/10/07 04:13:42;;;;;;;3.97;0.60;;;22.40;53.70;;;;;;5061829;28;20384;-75
2021/10/07 04:16:07;;;;;;;8.65;0.73;;;22.50;54.00;;;;;;5061962;28;20413;-74
2021/10/07 04:18:33;;;;;;;8.33;1.07;;;22.50;53.10;;;;;;5063554;28;21021;-75
2021/10/07 04:20:59;;;;;;;10.32;0.80;;;22.50;53.00;;;;;;5048234;28;20479;-75
2021/10/07 04:23:25;;;;;;;6.55;0.70;;;22.40;52.90;;;;;;5062607;28;20879;-75
2021/10/07 04:25:50;;;;;;;7.68;0.93;;;22.30;53.20;;;;;;5061382;28;20391;-74
2021/10/07 04:28:16;;;;;;;6.03;0.80;;;22.40;53.40;;;;;;5061348;28;20454;-75
2021/10/07 04:30:42;;;;;;;4.50;0.70;;;22.40;53.70;;;;;;5060287;28;20399;-74
2021/10/07 04:33:10;;;;;;;8.27;0.65;;;22.40;53.30;;;;;;5058815;28;21004;-75
2021/10/07 04:35:37;;;;;;;10.18;1.23;;;22.40;52.30;;;;;;5048665;28;20501;-75
2021/10/07 04:38:03;;;;;;;9.48;0.80;;;22.30;52.60;;;;;;5058341;28;20407;-75
2021/10/07 04:40:29;;;;;;;6.40;0.70;;;22.30;52.70;;;;;;5061682;28;20409;-74
2021/10/07 04:42:55;;;;;;;9.38;1.10;;;22.30;53.20;;;;;;5051378;28;20388;-75
2021/10/07 04:45:22;;;;;;;6.55;1.05;;;22.40;53.30;;;;;;5060556;28;21117;-75
2021/10/07 04:47:47;;;;;;;6.07;0.70;;;22.40;53.00;;;;;;5065026;28;20392;-75
2021/10/07 04:50:13;;;;;;;5.68;0.73;;;22.50;52.70;;;;;;5065214;28;20388;-74
2021/10/07 04:52:39;;;;;;;9.57;0.80;;;22.40;52.60;;;;;;5064682;28;20395;-74
2021/10/07 04:55:06;;;;;;;5.20;0.60;;;22.40;52.90;;;;;;5058605;28;20388;-74
2021/10/07 04:57:33;;;;;;;8.20;0.90;;;22.40;53.20;;;;;;5064750;28;20394;-75
2021/10/07 04:59:59;;;;;;;9.18;0.88;;;22.50;53.10;;;;;;5066334;28;20744;-75
2021/10/07 05:02:24;;;;;;;6.63;0.57;;;22.40;52.80;;;;;;5055007;28;20421;-76
2021/10/07 05:04:50;;;;;;;3.35;0.50;;;22.40;52.50;;;;;;5064968;28;20473;-74
2021/10/07 05:07:16;;;;;;;6.93;0.90;;;22.40;52.10;;;;;;5055205;28;20478;-74
2021/10/07 05:09:41;;;;;;;6.47;0.70;;;22.30;52.70;;;;;;5055733;28;20939;-74
2021/10/07 05:12:07;;;;;;;3.43;0.63;;;22.20;53.00;;;;;;5065169;28;20744;-74
2021/10/07 05:14:33;;;;;;;2.97;0.40;;;22.30;52.80;;;;;;5064921;28;20388;-75
2021/10/07 05:16:59;;;;;;;2.92;0.45;;;22.30;52.60;;;;;;5064947;28;20462;-74
2021/10/07 05:19:25;;;;;;;3.67;0.50;;;22.30;52.50;;;;;;5052897;28;20965;-76
2021/10/07 05:21:51;;;;;;;6.27;0.50;;;22.20;52.40;;;;;;5064648;28;20380;-75
2021/10/07 05:24:16;;;;;;;3.33;0.50;;;22.20;52.50;;;;;;5064788;28;20395;-75
2021/10/07 05:26:42;;;;;;;3.53;0.60;;;22.10;52.30;;;;;;5060622;28;20413;-75
2021/10/07 05:29:08;;;;;;;5.75;1.00;;;22.20;52.50;;;;;;5064239;28;20721;-75
2021/10/07 05:31:33;;;;;;;2.90;0.50;;;22.20;52.40;;;;;;5062665;28;20443;-75
2021/10/07 05:34:00;;;;;;;3.60;0.55;;;22.20;52.30;;;;;;5064638;28;20392;-74
2021/10/07 05:36:25;;;;;;;3.28;0.50;;;22.20;52.60;;;;;;5053640;28;20894;-74
2021/10/07 05:38:51;;;;;;;2.88;0.50;;;22.20;52.70;;;;;;5063171;28;20427;-75
2021/10/07 05:41:16;;;;;;;2.60;0.60;;;22.10;52.60;;;;;;5054368;28;20891;-75
2021/10/07 05:43:42;;;;;;;2.15;0.63;;;22.10;52.70;;;;;;5064436;28;21192;-74
2021/10/07 05:46:08;;;;;;;2.67;0.65;;;22.20;52.60;;;;;;5059409;28;20396;-74
2021/10/07 05:48:36;;;;;;;2.33;0.40;;;22.20;52.60;;;;;;5054200;28;20813;-74
2021/10/07 05:51:02;;;;;;;3.03;0.50;;;22.10;52.60;;;;;;5050992;28;20879;-74
2021/10/07 05:53:28;;;;;;;1.30;0.30;;;22.10;52.80;;;;;;5049125;28;20465;-75
2021/10/07 05:55:53;;;;;;;2.17;0.40;;;22.00;52.80;;;;;;5063322;28;21164;-75
2021/10/07 05:58:19;;;;;;;3.72;0.50;;;22.00;52.80;;;;;;5063925;28;20411;-75
2021/10/07 06:00:45;;;;;;;3.80;0.40;;;22.10;52.70;;;;;;5062642;28;20434;-74
2021/10/07 06:03:10;;;;;;;1.90;0.40;;;22.10;52.60;;;;;;5052133;28;20468;-74
2021/10/07 06:05:37;;;;;;;1.13;0.40;;;22.10;52.80;;;;;;5063680;28;20387;-75
2021/10/07 06:08:03;;;;;;;1.83;0.40;;;22.10;53.00;;;;;;5063598;28;20933;-74
2021/10/07 06:10:29;;;;;;;2.15;0.45;;;22.00;52.80;;;;;;5064051;28;20476;-73
2021/10/07 06:12:54;;;;;;;1.90;0.50;;;22.00;52.80;;;;;;5063754;28;20392;-74
2021/10/07 06:15:23;;;;;;;1.25;0.32;;;22.10;52.80;;;;;;5063616;28;20392;-74
2021/10/07 06:17:48;;;;;;;1.98;0.40;;;22.10;52.70;;;;;;5061954;28;20407;-75
2021/10/07 06:20:37;;;;;;;1.45;0.70;;;22.10;52.80;;;;;;5062906;28;20485;-75
2021/10/07 06:23:04;;;;;;;1.73;0.80;;;22.00;52.90;;;;;;5063418;28;20744;-75
2021/10/07 06:25:30;;;;;;;3.38;1.00;;;22.00;53.00;;;;;;5063071;28;20453;-74
2021/10/07 06:27:56;;;;;;;2.13;0.80;;;21.90;52.80;;;;;;5061909;28;20480;-75
2021/10/07 06:30:22;;;;;;;2.80;1.00;;;22.00;52.90;;;;;;5062313;28;20474;-75
2021/10/07 06:32:49;;;;;;;2.15;0.95;;;22.00;52.80;;;;;;5063450;28;20380;-74
2021/10/07 06:35:15;;;;;;;2.70;1.00;;;22.00;52.80;;;;;;5063030;28;20414;-75
2021/10/07 06:37:42;;;;;;;2.45;0.70;;;22.00;53.10;;;;;;5063593;28;20437;-74
2021/10/07 06:40:09;;;;;;;2.05;0.70;;;22.00;53.00;;;;;;5046568;28;20472;-74
2021/10/07 06:42:36;;;;;;;2.45;0.70;;;21.90;52.90;;;;;;5063347;28;20462;-75
2021/10/07 06:45:06;;;;;;;2.03;0.70;;;22.00;53.00;;;;;;5063303;28;20398;-74
2021/10/07 06:47:32;;;;;;;1.85;0.60;;;22.00;52.80;;;;;;5095613;28;20418;-75
2021/10/07 06:49:59;;;;;;;2.70;0.80;;;22.00;52.90;;;;;;5063064;28;20392;-75
2021/10/07 06:52:25;;;;;;;1.73;0.60;;;22.00;53.10;;;;;;5049409;28;20998;-75
2021/10/07 06:54:50;;;;;;;1.83;0.70;;;21.90;53.00;;;;;;5062944;28;20461;-75
2021/10/07 06:57:16;;;;;;;1.50;0.70;;;21.90;53.20;;;;;;5062622;28;20931;-75
2021/10/07 06:59:42;;;;;;;1.85;0.70;;;21.90;53.00;;;;;;5050980;28;20764;-74
2021/10/07 07:02:08;;;;;;;2.20;0.70;;;22.00;52.90;;;;;;5062910;28;20482;-75
2021/10/07 07:04:33;;;;;;;1.80;0.63;;;22.00;52.90;;;;;;5049352;28;20830;-75
2021/10/07 07:06:59;;;;;;;1.97;0.77;;;21.90;52.90;;;;;;5047594;28;21042;-74
2021/10/07 07:09:24;;;;;;;1.70;0.90;;;21.90;53.00;;;;;;5061882;28;20408;-75
2021/10/07 07:11:51;;;;;;;1.37;0.60;;;21.90;53.00;;;;;;5062795;28;20387;-75
2021/10/07 07:14:17;;;;;;;1.60;0.70;;;21.80;53.00;;;;;;5063141;28;20524;-75
2021/10/07 07:16:43;;;;;;;1.85;0.88;;;22.00;53.00;;;;;;5051989;28;20426;-75
2021/10/07 07:19:09;;;;;;;1.60;0.70;;;22.00;52.90;;;;;;5062417;28;20423;-74
2021/10/07 07:21:36;;;;;;;1.70;0.70;;;22.00;53.10;;;;;;5062581;28;20415;-74
2021/10/07 07:24:03;;;;;;;1.95;0.80;;;21.90;53.10;;;;;;5055819;28;20403;-74
2021/10/07 07:26:31;;;;;;;1.63;0.70;;;21.90;53.00;;;;;;5062792;28;20472;-74
2021/10/07 07:28:57;;;;;;;1.33;0.50;;;21.90;53.00;;;;;;5062607;28;20564;-75
2021/10/07 07:31:25;;;;;;;1.65;0.60;;;21.90;53.00;;;;;;5049941;28;20375;-75
2021/10/07 07:33:51;;;;;;;1.30;0.70;;;21.90;52.90;;;;;;5051152;28;20925;-74
2021/10/07 07:36:18;;;;;;;1.55;0.80;;;21.90;53.00;;;;;;5061180;28;20383;-75
2021/10/07 07:38:44;;;;;;;1.23;0.60;;;21.90;53.20;;;;;;5061889;28;20422;-74
2021/10/07 07:41:11;;;;;;;1.37;0.60;;;21.80;53.20;;;;;;5062332;28;20388;-74
2021/10/07 07:43:39;;;;;;;1.13;0.63;;;21.90;53.20;;;;;;5062231;28;20399;-75
2021/10/07 07:46:04;;;;;;;1.25;0.63;;;21.90;53.00;;;;;;5062187;28;20384;-74
2021/10/07 07:48:30;;;;;;;1.70;0.70;;;21.90;53.00;;;;;;5062598;28;20402;-75
2021/10/07 07:50:56;;;;;;;1.60;0.70;;;21.90;52.90;;;;;;5062357;28;20422;-74
2021/10/07 07:53:22;;;;;;;1.50;0.65;;;21.90;53.20;;;;;;5061949;28;20834;-74
2021/10/07 07:55:48;;;;;;;1.30;0.60;;;21.90;53.20;;;;;;5062385;28;20448;-75
2021/10/07 07:58:14;;;;;;;1.30;0.73;;;21.80;53.10;;;;;;5048704;28;20896;-74
2021/10/07 08:00:40;;;;;;;1.60;0.70;;;21.90;53.00;;;;;;5062390;28;20443;-75
2021/10/07 08:03:06;;;;;;;1.27;0.68;;;21.90;52.80;;;;;;5062181;28;20387;-75
2021/10/07 08:05:32;;;;;;;1.70;0.80;;;21.90;52.90;;;;;;5061860;28;20399;-75
2021/10/07 08:07:58;;;;;;;1.27;0.70;;;21.90;53.10;;;;;;5077218;28;20545;-75
2021/10/07 08:10:24;;;;;;;1.40;0.70;;;21.80;53.10;;;;;;5050109;28;20415;-74
2021/10/07 08:12:50;;;;;;;1.58;0.70;;;21.80;53.20;;;;;;5062234;28;20514;-75
2021/10/07 08:15:16;;;;;;;1.20;0.70;;;21.90;53.20;;;;;;5052138;28;21180;-75
2021/10/07 08:17:42;;;;;;;1.20;0.70;;;21.90;53.00;;;;;;5062035;28;20384;-74
2021/10/07 08:20:09;;;;;;;1.30;0.70;;;21.90;53.00;;;;;;5055417;28;20392;-74
2021/10/07 08:22:35;;;;;;;1.30;0.60;;;21.90;53.10;;;;;;5055246;28;20396;-75
2021/10/07 08:25:02;;;;;;;1.60;0.67;;;21.80;53.20;;;;;;5057574;28;20395;-74
2021/10/07 08:27:28;;;;;;;1.35;0.65;;;21.80;53.20;;;;;;5065460;28;20388;-74
2021/10/07 08:29:54;;;;;;;1.10;0.60;;;21.80;53.20;;;;;;5065895;28;20402;-74
2021/10/07 08:32:20;;;;;;;1.15;0.63;;;21.90;53.00;;;;;;5066089;28;20444;-74
2021/10/07 08:34:46;;;;;;;1.23;0.60;;;21.90;53.10;;;;;;5057716;28;21416;-75
2021/10/07 08:37:11;;;;;;;1.70;0.70;;;21.90;53.10;;;;;;5066020;28;20863;-75
2021/10/07 08:39:37;;;;;;;1.30;0.70;;;21.80;53.20;;;;;;5065364;28;20437;-75
2021/10/07 08:42:04;;;;;;;1.42;0.70;;;21.80;53.10;;;;;;5058454;28;20748;-75
2021/10/07 08:44:31;;;;;;;2.05;0.70;;;21.80;53.20;;;;;;5065739;28;20868;-74
2021/10/07 08:46:58;;;;;;;1.15;0.60;;;21.90;53.10;;;;;;5065227;28;20394;-75
2021/10/07 08:49:27;;;;;;;1.20;0.63;;;21.90;53.00;;;;;;5065407;28;20394;-74
2021/10/07 08:51:53;;;;;;;0.88;0.50;;;21.80;53.00;;;;;;5065466;28;20426;-74
2021/10/07 08:54:19;;;;;;;2.00;0.80;;;21.80;53.20;;;;;;5061550;28;20486;-75
2021/10/07 08:56:45;;;;;;;1.40;0.70;;;21.80;53.20;;;;;;5065538;28;20804;-75
2021/10/07 08:59:11;;;;;;;1.23;0.60;;;21.80;53.10;;;;;;5064783;28;20426;-74
2021/10/07 09:01:43;;;;;;;2.33;0.80;;;21.80;53.00;;;;;;5057886;28;20387;-74
2021/10/07 09:04:24;;;;;;;1.90;0.63;;;21.80;53.00;;;;;;5065215;28;20432;-74
2021/10/07 09:06:58;;;;;;;1.58;0.60;;;21.90;53.00;;;;;;5063785;28;20446;-75
2021/10/07 09:09:25;;;;;;;1.30;0.70;;;21.80;53.10;;;;;;5064834;28;20418;-75
2021/10/07 09:12:06;;;;;;;1.48;0.70;;;21.80;53.20;;;;;;5064692;28;20380;-75
2021/10/07 09:14:35;;;;;;;1.45;0.50;;;21.80;53.70;;;;;;5064790;28;20391;-75
2021/10/07 09:17:02;;;;;;;1.52;0.60;;;21.80;53.00;;;;;;5064415;28;21014;-74
2021/10/07 09:19:33;;;;;;;1.08;0.63;;;21.80;52.90;;;;;;5064359;28;20927;-74
2021/10/07 09:22:12;;;;;;;1.55;0.70;;;21.80;52.90;;;;;;5064883;28;20395;-75
2021/10/07 09:24:44;;;;;;;1.23;0.60;;;21.80;53.20;;;;;;5047863;28;20461;-75
2021/10/07 09:27:12;;;;;;;1.60;0.60;;;21.70;53.00;;;;;;5063336;28;20449;-75
2021/10/07 09:29:53;;;;;;;1.17;0.70;;;21.70;53.10;;;;;;5064545;28;20811;-75
2021/10/07 09:32:41;;;;;;;1.35;0.50;;;21.80;52.90;;;;;;5064517;28;20390;-74
2021/10/07 09:35:11;;;;;;;1.10;0.57;;;21.80;52.90;;;;;;5064680;28;20462;-75
2021/10/07 09:37:37;;;;;;;1.27;0.70;;;21.80;53.10;;;;;;5096615;28;20395;-75
2021/10/07 09:40:09;;;;;;;1.10;0.50;;;21.80;53.20;;;;;;5064703;28;20399;-75
2021/10/07 09:42:39;;;;;;;0.95;0.50;;;21.80;53.20;;;;;;5064339;28;20466;-75
2021/10/07 09:45:07;;;;;;;1.52;0.70;;;21.70;53.20;;;;;;5064485;28;20399;-75
2021/10/07 09:48:01;;;;;;;1.23;0.60;;;21.80;53.00;;;;;;5062461;28;20728;-74
2021/10/07 09:50:26;;;;;;;1.33;0.60;;;21.80;53.00;;;;;;5062415;28;20553;-74
2021/10/07 09:53:08;;;;;;;1.17;0.52;;;21.80;53.10;;;;;;5055067;28;20786;-74
2021/10/07 09:55:38;;;;;;;1.50;0.60;;;21.80;53.20;;;;;;5063771;28;20437;-75
2021/10/07 09:58:10;;;;;;;1.02;0.60;;;21.80;53.20;;;;;;5063886;28;20746;-74
2021/10/07 10:00:40;;;;;;;1.42;0.70;;;21.70;53.20;;;;;;5064299;28;20963;-75
2021/10/07 10:03:08;;;;;;;1.55;0.60;;;21.80;53.10;;;;;;5064138;28;20392;-75
2021/10/07 10:05:35;;;;;;;1.30;0.60;;;21.80;53.00;;;;;;5052999;28;21223;-74
2021/10/07 10:08:04;;;;;;;1.20;0.55;;;21.80;53.10;;;;;;5063858;28;20396;-75
2021/10/07 10:10:30;;;;;;;1.23;0.50;;;21.70;53.20;;;;;;5063904;28;20822;-75
2021/10/07 10:12:56;;;;;;;1.20;0.60;;;21.70;53.90;;;;;;5064034;28;20383;-75
2021/10/07 10:15:22;;;;;;;1.10;0.50;;;21.70;53.20;;;;;;5062115;28;20433;-75
2021/10/07 10:17:49;;;;;;;1.38;0.60;;;21.80;53.20;;;;;;5063758;28;21188;-75
2021/10/07 10:20:26;;;;;;;1.10;0.57;;;21.80;53.10;;;;;;5064145;28;20399;-74
2021/10/07 10:23:08;;;;;;;1.30;0.68;;;21.80;53.10;;;;;;5052824;28;20863;-75
2021/10/07 10:25:53;;;;;;;1.20;0.50;;;21.80;53.20;;;;;;5050570;28;20400;-74
2021/10/07 10:28:50;;;;;;;1.20;0.60;;;21.70;53.20;;;;;;5062430;28;20419;-75
2021/10/07 10:31:27;;;;;;;1.08;0.52;;;21.70;53.20;;;;;;5055039;28;20483;-74
2021/10/07 10:34:06;;;;;;;1.20;0.60;;;21.80;53.00;;;;;;5061949;28;20419;-74
2021/10/07 10:36:48;;;;;;;1.15;0.70;;;21.80;53.10;;;;;;5054508;28;20430;-75
2021/10/07 10:39:27;;;;;;;1.20;0.63;;;21.80;53.20;;;;;;5063269;28;20445;-74
2021/10/07 10:42:08;;;;;;;1.83;0.70;;;21.70;53.30;;;;;;5054399;28;20391;-75
2021/10/07 10:44:46;;;;;;;1.70;0.80;;;21.70;53.30;;;;;;5062178;28;20483;-75
2021/10/07 10:47:11;;;;;;;1.10;0.55;;;21.80;53.20;;;;;;5063441;28;20380;-75
2021/10/07 10:49:52;;;;;;;1.53;0.57;;;21.80;53.00;;;;;;5062740;28;20398;-75
2021/10/07 10:52:33;;;;;;;1.60;0.60;;;21.80;53.00;;;;;;5051766;28;20399;-75
2021/10/07 10:55:08;;;;;;;1.17;0.50;;;21.70;53.20;;;;;;5052192;28;20477;-75
2021/10/07 10:57:44;;;;;;;1.23;0.60;;;21.70;53.20;;;;;;5055388;28;20406;-74
2021/10/07 11:00:16;;;;;;;1.10;0.50;;;21.70;53.20;;;;;;5062882;28;20431;-75
2021/10/07 11:02:54;;;;;;;1.53;0.73;;;21.70;53.00;;;;;;5063168;28;20396;-75
2021/10/07 11:05:29;;;;;;;1.42;0.60;;;21.80;53.00;;;;;;5046648;28;20472;-75
2021/10/07 11:08:13;;;;;;;1.35;0.60;;;21.70;53.00;;;;;;5062865;28;20380;-74
2021/10/07 11:10:40;;;;;;;1.17;0.65;;;21.70;53.20;;;;;;5061817;28;20408;-75
2021/10/07 11:13:14;;;;;;;1.20;0.63;;;21.70;53.20;;;;;;5059427;28;20391;-75
2021/10/07 11:15:40;;;;;;;1.27;0.68;;;21.70;53.20;;;;;;5055624;28;20388;-75
2021/10/07 11:18:05;;;;;;;1.50;0.80;;;21.80;53.20;;;;;;5052369;28;20414;-74
2021/10/07 11:20:33;;;;;;;1.20;0.63;;;21.80;53.00;;;;;;5060296;28;20414;-74
2021/10/07 11:23:02;;;;;;;1.33;0.55;;;21.80;53.20;;;;;;5061288;28;20396;-75
2021/10/07 11:25:28;;;;;;;1.73;0.80;;;21.70;53.20;;;;;;5061274;28;20776;-75
2021/10/07 11:27:54;;;;;;;1.63;0.70;;;21.70;53.30;;;;;;5050327;28;20432;-75
2021/10/07 11:30:22;;;;;;;1.13;0.50;;;21.60;53.30;;;;;;5062695;28;20403;-75
2021/10/07 11:32:49;;;;;;;1.27;0.70;;;21.80;53.30;;;;;;5062793;28;20439;-75
2021/10/07 11:35:16;;;;;;;1.20;0.60;;;21.80;53.20;;;;;;5062591;28;20396;-75
2021/10/07 11:37:51;;;;;;;1.65;0.70;;;21.80;53.20;;;;;;5062210;28;20384;-73
2021/10/07 11:40:24;;;;;;;1.33;0.60;;;21.70;53.20;;;;;;5048888;28;20973;-75
2021/10/07 11:42:50;;;;;;;1.70;0.80;;;21.70;53.30;;;;;;5048979;28;20396;-75
2021/10/07 11:45:27;;;;;;;1.13;0.60;;;21.70;53.30;;;;;;5062183;28;20474;-75
2021/10/07 11:47:53;;;;;;;1.23;0.60;;;21.70;53.10;;;;;;5062210;28;20480;-75
2021/10/07 11:50:23;;;;;;;1.63;0.63;;;21.80;53.00;;;;;;5058984;28;20946;-75
2021/10/07 11:52:50;;;;;;;1.35;0.50;;;21.80;53.10;;;;;;5051048;28;20387;-74
2021/10/07 11:55:20;;;;;;;1.02;0.65;;;21.70;53.20;;;;;;5048227;28;20429;-74
2021/10/07 11:57:57;;;;;;;1.15;0.60;;;21.70;53.20;;;;;;5061707;28;20458;-75
2021/10/07 12:00:56;;;;;;;1.00;0.60;;;21.70;53.20;;;;;;5053899;28;20981;-74
2021/10/07 12:03:29;;;;;;;1.25;0.70;;;21.80;53.20;;;;;;5024216;28;20871;-75
2021/10/07 12:06:01;;;;;;;2.65;0.75;;;21.80;52.80;;;;;;5060670;28;20787;-75
2021/10/07 12:08:30;;;;;;;2.05;0.70;;;21.80;52.70;;;;;;5047801;28;20398;-76
2021/10/07 12:10:59;;;;;;;3.20;0.70;;;21.80;52.90;;;;;;5062138;28;20396;-75
2021/10/07 12:13:27;;;;;;;3.20;0.73;;;21.70;52.70;;;;;;5056095;28;20740;-75
2021/10/07 12:16:22;;;;;;;2.22;0.60;;;21.70;53.30;;;;;;5052213;28;20415;-75
2021/10/07 12:18:54;;;;;;;1.58;0.80;;;21.80;52.70;;;;;;5061746;28;20992;-74
2021/10/07 12:21:25;;;;;;;1.85;0.50;;;21.80;52.80;;;;;;5060507;28;20395;-74
2021/10/07 12:24:02;;;;;;;3.90;0.70;;;21.80;52.70;;;;;;5061658;28;20642;-74
2021/10/07 12:27:03;;;;;;;3.63;0.73;;;21.80;53.30;;;;;;5050240;28;20387;-74
2021/10/07 12:29:34;;;;;;;2.33;0.60;;;21.80;52.80;;;;;;5075190;28;20969;-75
2021/10/07 12:32:03;;;;;;;3.20;0.70;;;21.80;53.10;;;;;;5094090;28;20746;-75
2021/10/07 12:34:43;;;;;;;3.08;0.80;;;21.90;53.40;;;;;;5051736;28;20755;-75
2021/10/07 12:37:11;;;;;;;2.55;0.70;;;21.90;52.80;;;;;;5061385;28;20995;-75
2021/10/07 12:39:46;;;;;;;2.67;0.70;;;21.80;52.50;;;;;;5061149;28;20836;-75
2021/10/07 12:42:18;;;;;;;3.55;0.60;;;21.80;52.50;;;;;;5061596;28;20752;-75
2021/10/07 12:44:44;;;;;;;3.92;1.00;;;21.80;52.50;;;;;;5061854;28;20388;-75
2021/10/07 12:47:28;;;;;;;3.33;0.80;;;21.80;52.90;;;;;;5061374;28;20402;-75
2021/10/07 12:49:59;;;;;;;5.25;1.20;;;21.90;52.80;;;;;;5061386;28;21002;-75
2021/10/07 12:52:41;;;;;;;4.00;0.95;;;21.90;52.70;;;;;;5060042;28;20526;-74
2021/10/07 12:55:09;;;;;;;5.27;1.20;;;21.90;52.50;;;;;;5062085;28;20844;-74
2021/10/07 12:57:48;;;;;;;3.27;0.80;;;21.90;52.00;;;;;;5060073;28;20395;-73